createdAt,value
2023-02-06T00:00:54.078Z,4.10
2023-02-06T00:03:21.900Z,4.00
2023-02-06T00:05:57.452Z,4.10
2023-02-06T00:08:27.287Z,4.00
2023-02-06T00:10:55.697Z,4.10
2023-02-06T00:13:23.691Z,4.10
2023-02-06T00:15:51.582Z,4.00
2023-02-06T00:18:19.397Z,4.10
2023-02-06T00:20:47.218Z,4.10
2023-02-06T00:23:15.217Z,4.10
2023-02-06T00:25:44.429Z,4.00
2023-02-06T00:28:12.300Z,4.10
2023-02-06T00:30:40.460Z,4.10
2023-02-06T00:33:08.421Z,4.10
2023-02-06T00:35:36.540Z,4.10
2023-02-06T00:38:06.665Z,4.10
2023-02-06T00:40:34.782Z,4.00
2023-02-06T00:43:04.018Z,4.00
2023-02-06T00:45:31.972Z,4.10
2023-02-06T00:47:59.832Z,4.10
2023-02-06T00:50:28.129Z,4.00
2023-02-06T00:52:56.011Z,4.00
2023-02-06T00:55:24.146Z,4.00
2023-02-06T00:57:51.979Z,4.00
2023-02-06T01:00:21.304Z,4.00
2023-02-06T01:02:49.221Z,4.00
2023-02-06T01:05:17.166Z,4.00
2023-02-06T01:07:45.279Z,4.00
2023-02-06T01:10:13.575Z,3.90
2023-02-06T01:12:42.579Z,3.90
2023-02-06T01:15:12.898Z,3.90
2023-02-06T01:17:42.478Z,3.90
2023-02-06T01:20:14.127Z,3.90
2023-02-06T01:22:42.015Z,3.90
2023-02-06T01:25:10.526Z,3.90
2023-02-06T01:27:39.403Z,4.00
2023-02-06T01:30:08.931Z,4.00
2023-02-06T01:32:38.092Z,3.90
2023-02-06T01:35:09.306Z,3.90
2023-02-06T01:37:38.290Z,3.90
2023-02-06T01:40:07.306Z,3.90
2023-02-06T01:42:36.306Z,3.90
2023-02-06T01:45:42.391Z,3.90
2023-02-06T01:48:14.576Z,3.90
2023-02-06T01:50:47.315Z,3.90
2023-02-06T01:53:16.931Z,3.90
2023-02-06T01:55:47.194Z,3.90
2023-02-06T01:58:18.177Z,3.90
2023-02-06T02:00:46.454Z,3.90
2023-02-06T02:03:15.127Z,3.90
2023-02-06T02:05:46.292Z,3.90
2023-02-06T02:08:19.451Z,3.90
2023-02-06T02:10:48.205Z,3.90
2023-02-06T02:13:16.053Z,3.90
2023-02-06T02:15:52.809Z,3.90
2023-02-06T02:18:39.155Z,3.90
2023-02-06T02:21:29.599Z,3.90
2023-02-06T02:24:04.435Z,3.90
2023-02-06T02:27:03.293Z,3.80
2023-02-06T02:30:10.593Z,3.90
2023-02-06T02:33:27.144Z,3.90
2023-02-06T02:36:04.669Z,3.90
2023-02-06T02:38:43.814Z,3.90
2023-02-06T02:41:19.956Z,3.90
2023-02-06T02:43:55.091Z,3.90
2023-02-06T02:46:28.919Z,3.90
2023-02-06T02:49:02.110Z,3.90
2023-02-06T02:51:31.967Z,3.90
2023-02-06T02:53:59.884Z,3.90
2023-02-06T02:56:28.287Z,3.90
2023-02-06T02:58:59.737Z,3.90
2023-02-06T03:01:31.979Z,3.90
2023-02-06T03:04:04.328Z,3.90
2023-02-06T03:06:47.620Z,3.90
2023-02-06T03:09:23.249Z,3.90
2023-02-06T03:12:00.518Z,3.90
2023-02-06T03:14:32.784Z,3.90
2023-02-06T03:17:05.856Z,3.90
2023-02-06T03:19:36.759Z,3.90
2023-02-06T03:22:07.164Z,3.90
2023-02-06T03:24:40.091Z,3.90
2023-02-06T03:27:12.524Z,3.90
2023-02-06T03:29:42.439Z,3.90
2023-02-06T03:32:16.340Z,3.90
2023-02-06T03:34:49.104Z,3.90
2023-02-06T03:37:18.744Z,3.90
2023-02-06T03:39:46.649Z,3.80
2023-02-06T03:42:16.558Z,3.80
2023-02-06T03:44:49.045Z,3.80
2023-02-06T03:47:18.171Z,3.80
2023-02-06T03:49:48.182Z,3.80
2023-02-06T03:52:21.418Z,3.70
2023-02-06T03:54:54.014Z,3.80
2023-02-06T03:57:23.966Z,3.80
2023-02-06T03:59:52.178Z,3.80
2023-02-06T04:02:22.570Z,3.70
2023-02-06T04:04:50.494Z,3.70
2023-02-06T04:07:24.309Z,3.70
2023-02-06T04:09:52.654Z,3.70
2023-02-06T04:12:21.127Z,3.70
2023-02-06T04:14:49.190Z,3.70
2023-02-06T04:17:36.133Z,3.70
2023-02-06T04:20:07.401Z,3.70
2023-02-06T04:22:36.596Z,3.70
2023-02-06T04:25:04.542Z,3.70
2023-02-06T04:27:32.374Z,3.70
2023-02-06T04:30:01.427Z,3.70
2023-02-06T04:32:29.343Z,3.60
2023-02-06T04:34:57.162Z,3.60
2023-02-06T04:37:25.044Z,3.60
2023-02-06T04:39:54.262Z,3.60
2023-02-06T04:42:22.126Z,3.60
2023-02-06T04:44:49.969Z,3.60
2023-02-06T04:47:17.875Z,3.60
2023-02-06T04:49:45.822Z,3.60
2023-02-06T04:52:13.638Z,3.60
2023-02-06T04:54:41.544Z,3.60
2023-02-06T04:57:10.733Z,3.60
2023-02-06T04:59:38.530Z,3.60
2023-02-06T05:02:06.316Z,3.60
2023-02-06T05:04:34.083Z,3.60
2023-02-06T05:07:03.413Z,3.60
2023-02-06T05:09:32.412Z,3.60
2023-02-06T05:12:00.425Z,3.60
2023-02-06T05:14:29.656Z,3.60
2023-02-06T05:16:57.476Z,3.60
2023-02-06T05:19:25.311Z,3.70
2023-02-06T05:21:53.198Z,3.60
2023-02-06T05:24:21.074Z,3.60
2023-02-06T05:26:48.872Z,3.60
2023-02-06T05:29:16.697Z,3.60
2023-02-06T05:31:45.927Z,3.60
2023-02-06T05:34:13.743Z,3.60
2023-02-06T05:36:41.605Z,3.60
2023-02-06T05:39:09.758Z,3.60
2023-02-06T05:41:40.172Z,3.60
2023-02-06T05:44:13.608Z,3.60
2023-02-06T05:46:41.515Z,3.60
2023-02-06T05:49:10.845Z,3.60
2023-02-06T05:51:38.806Z,3.50
2023-02-06T05:54:07.839Z,3.60
2023-02-06T05:56:35.692Z,3.60
2023-02-06T05:59:03.485Z,3.50
2023-02-06T06:01:31.273Z,3.50
2023-02-06T06:03:59.226Z,3.50
2023-02-06T06:06:29.886Z,3.50
2023-02-06T06:08:58.174Z,3.50
2023-02-06T06:11:25.970Z,3.50
2023-02-06T06:13:57.457Z,3.50
2023-02-06T06:16:26.561Z,3.50
2023-02-06T06:18:55.674Z,3.50
2023-02-06T06:21:23.930Z,3.50
2023-02-06T06:24:00.335Z,3.50
2023-02-06T06:26:29.068Z,3.50
2023-02-06T06:28:58.834Z,3.50
2023-02-06T06:31:26.719Z,3.50
2023-02-06T06:33:55.748Z,3.50
2023-02-06T06:36:23.677Z,3.40
2023-02-06T06:38:52.913Z,3.40
2023-02-06T06:41:20.839Z,3.40
2023-02-06T06:43:51.259Z,3.40
2023-02-06T06:46:19.656Z,3.40
2023-02-06T06:48:47.578Z,3.40
2023-02-06T06:51:15.466Z,3.40
2023-02-06T06:53:43.287Z,3.30
2023-02-06T06:56:14.303Z,3.30
2023-02-06T06:58:43.243Z,3.30
2023-02-06T07:01:11.226Z,3.30
2023-02-06T07:03:39.387Z,3.30
2023-02-06T07:06:07.307Z,3.30
2023-02-06T07:08:35.953Z,3.30
2023-02-06T07:11:03.823Z,3.30
2023-02-06T07:13:32.957Z,3.30
2023-02-06T07:16:00.845Z,3.30
2023-02-06T07:18:28.757Z,3.30
2023-02-06T07:20:56.770Z,3.30
2023-02-06T07:23:24.659Z,3.30
2023-02-06T07:25:52.702Z,3.30
2023-02-06T07:28:20.526Z,3.30
2023-02-06T07:30:49.799Z,3.30
2023-02-06T07:33:17.719Z,3.30
2023-02-06T07:35:45.623Z,3.40
2023-02-06T07:38:13.531Z,3.40
2023-02-06T07:40:45.568Z,3.40
2023-02-06T07:43:14.178Z,3.40
2023-02-06T07:45:42.089Z,3.40
2023-02-06T07:48:11.637Z,3.40
2023-02-06T07:50:39.829Z,3.40
2023-02-06T07:53:10.404Z,3.40
2023-02-06T07:55:38.905Z,3.40
2023-02-06T07:58:07.071Z,3.40
2023-02-06T08:00:35.071Z,3.40
2023-02-06T08:03:02.952Z,3.40
2023-02-06T08:05:32.861Z,3.50
2023-02-06T08:08:00.848Z,3.50
2023-02-06T08:10:28.936Z,3.40
2023-02-06T08:12:56.865Z,3.40
2023-02-06T08:15:25.350Z,3.50
2023-02-06T08:17:53.531Z,3.50
2023-02-06T08:20:21.360Z,3.50
2023-02-06T08:22:50.534Z,3.60
2023-02-06T08:25:18.573Z,3.60
2023-02-06T08:27:46.480Z,3.60
2023-02-06T08:30:15.355Z,3.60
2023-02-06T08:32:43.200Z,3.60
2023-02-06T08:35:11.694Z,3.60
2023-02-06T08:37:40.816Z,3.70
2023-02-06T08:40:11.556Z,3.70
2023-02-06T08:42:39.434Z,3.70
2023-02-06T08:45:08.195Z,3.70
2023-02-06T08:47:36.066Z,3.60
2023-02-06T08:50:04.002Z,3.60
2023-02-06T08:52:31.897Z,3.60
2023-02-06T08:54:59.817Z,3.60
2023-02-06T08:57:29.050Z,3.70
2023-02-06T08:59:56.948Z,3.70
2023-02-06T09:02:24.863Z,3.80
2023-02-06T09:04:52.710Z,3.80
2023-02-06T09:07:21.724Z,3.80
2023-02-06T09:09:49.616Z,3.90
2023-02-06T09:12:17.810Z,3.90
2023-02-06T09:14:47.142Z,3.90
2023-02-06T09:17:14.985Z,3.90
2023-02-06T09:19:42.942Z,3.90
2023-02-06T09:22:10.937Z,3.90
2023-02-06T09:24:38.886Z,4.00
2023-02-06T09:27:06.753Z,4.00
2023-02-06T09:29:34.833Z,4.00
2023-02-06T09:32:04.206Z,4.00
2023-02-06T09:34:32.080Z,4.00
2023-02-06T09:37:02.370Z,4.00
2023-02-06T09:39:30.505Z,4.00
2023-02-06T09:42:04.771Z,4.00
2023-02-06T09:44:35.474Z,4.00
2023-02-06T09:47:10.244Z,4.00
2023-02-06T09:49:45.732Z,4.00
2023-02-06T09:52:34.787Z,4.00
2023-02-06T09:55:09.369Z,4.00
2023-02-06T09:57:46.559Z,4.00
2023-02-06T10:00:29.648Z,4.00
2023-02-06T10:03:24.162Z,4.10
2023-02-06T10:06:01.234Z,4.10
2023-02-06T10:08:35.483Z,4.20
2023-02-06T10:11:09.065Z,4.30
2023-02-06T10:13:41.701Z,4.30
2023-02-06T10:16:22.211Z,4.50
2023-02-06T10:18:54.890Z,4.50
2023-02-06T10:21:29.576Z,4.60
2023-02-06T10:24:01.890Z,4.60
2023-02-06T10:26:29.930Z,4.60
2023-02-06T10:29:00.538Z,4.70
2023-02-06T10:31:44.939Z,4.70
2023-02-06T10:34:32.453Z,4.60
2023-02-06T10:37:17.026Z,4.50
2023-02-06T10:40:02.468Z,4.60
2023-02-06T10:42:41.872Z,4.50
2023-02-06T10:45:22.042Z,4.60
2023-02-06T10:47:54.588Z,4.60
2023-02-06T10:50:29.501Z,4.60
2023-02-06T10:53:00.517Z,4.70
2023-02-06T10:55:33.735Z,4.70
2023-02-06T10:58:07.177Z,4.80
2023-02-06T11:00:36.013Z,4.80
2023-02-06T11:03:08.520Z,4.90
2023-02-06T11:05:38.825Z,4.90
2023-02-06T11:08:14.371Z,4.90
2023-02-06T11:10:42.407Z,4.90
2023-02-06T11:13:15.208Z,4.80
2023-02-06T11:15:50.895Z,4.80
2023-02-06T11:18:21.456Z,4.90
2023-02-06T11:20:53.733Z,5.00
2023-02-06T11:23:25.163Z,5.20
2023-02-06T11:26:04.016Z,5.70
2023-02-06T11:28:34.286Z,6.20
2023-02-06T11:31:04.614Z,6.30
2023-02-06T11:33:40.601Z,6.40
2023-02-06T11:36:24.331Z,6.40
2023-02-06T11:38:57.510Z,6.30
2023-02-06T11:41:25.501Z,6.30
2023-02-06T11:44:01.609Z,6.20
2023-02-06T11:46:32.603Z,6.10
2023-02-06T11:49:07.252Z,6.00
2023-02-06T11:51:52.460Z,5.90
2023-02-06T11:54:28.034Z,6.00
2023-02-06T11:57:07.854Z,5.90
2023-02-06T11:59:37.356Z,5.90
2023-02-06T12:02:26.515Z,6.00
2023-02-06T12:05:01.128Z,6.10
2023-02-06T12:07:34.170Z,6.20
2023-02-06T12:10:06.513Z,6.20
2023-02-06T12:12:38.718Z,6.30
2023-02-06T12:15:36.287Z,6.30
2023-02-06T12:18:06.958Z,6.30
2023-02-06T12:20:37.625Z,6.40
2023-02-06T12:23:14.120Z,6.40
2023-02-06T12:25:45.182Z,6.40
2023-02-06T12:28:18.913Z,6.50
2023-02-06T12:30:53.074Z,6.60
2023-02-06T12:33:25.483Z,6.70
2023-02-06T12:35:59.514Z,6.70
2023-02-06T12:38:39.895Z,6.60
2023-02-06T12:41:23.496Z,6.60
2023-02-06T12:43:55.969Z,6.40
2023-02-06T12:46:28.147Z,6.30
2023-02-06T12:49:00.738Z,6.20
2023-02-06T12:51:33.136Z,6.20
2023-02-06T12:54:05.562Z,6.30
2023-02-06T12:56:37.316Z,6.30
2023-02-06T12:59:29.458Z,6.30
2023-02-06T13:02:06.551Z,6.30
2023-02-06T13:04:37.291Z,6.40
2023-02-06T13:07:08.376Z,6.50
2023-02-06T13:09:41.731Z,6.80
2023-02-06T13:12:14.890Z,6.90
2023-02-06T13:14:48.664Z,7.00
2023-02-06T13:17:20.415Z,7.10
2023-02-06T13:19:53.963Z,7.20
2023-02-06T13:22:39.077Z,7.30
2023-02-06T13:25:53.513Z,7.40
2023-02-06T13:28:42.767Z,7.70
2023-02-06T13:31:31.999Z,7.60
2023-02-06T13:34:15.461Z,7.60
2023-02-06T13:36:50.261Z,7.40
2023-02-06T13:39:31.944Z,7.60
2023-02-06T13:42:24.036Z,7.70
2023-02-06T13:44:54.030Z,8.00
2023-02-06T13:47:53.870Z,8.10
2023-02-06T13:50:39.827Z,7.70
2023-02-06T13:53:26.247Z,7.50
2023-02-06T13:56:09.742Z,7.30
2023-02-06T13:58:47.453Z,7.40
2023-02-06T14:01:22.753Z,7.60
2023-02-06T14:03:52.271Z,7.90
2023-02-06T14:06:37.875Z,8.20
2023-02-06T14:09:18.770Z,8.40
2023-02-06T14:12:14.774Z,8.10
2023-02-06T14:14:55.459Z,7.60
2023-02-06T14:17:40.992Z,7.30
2023-02-06T14:20:21.392Z,7.50
2023-02-06T14:22:55.136Z,7.70
2023-02-06T14:25:53.867Z,7.80
2023-02-06T14:28:29.107Z,7.80
2023-02-06T14:31:05.506Z,7.90
2023-02-06T14:33:51.385Z,8.20
2023-02-06T14:36:32.016Z,8.50
2023-02-06T14:39:30.986Z,8.40
2023-02-06T14:41:59.554Z,8.10
2023-02-06T14:44:30.873Z,8.00
2023-02-06T14:46:59.324Z,8.00
2023-02-06T14:49:32.904Z,8.00
2023-02-06T14:52:02.307Z,7.90
2023-02-06T14:54:33.143Z,7.90
2023-02-06T14:57:03.418Z,7.80
2023-02-06T14:59:31.614Z,7.60
2023-02-06T15:02:00.829Z,7.30
2023-02-06T15:04:31.549Z,7.30
2023-02-06T15:07:01.962Z,7.30
2023-02-06T15:09:32.708Z,7.20
2023-02-06T15:12:02.664Z,7.00
2023-02-06T15:14:32.960Z,6.90
2023-02-06T15:17:02.752Z,6.70
2023-02-06T15:19:36.469Z,6.70
2023-02-06T15:22:07.563Z,6.60
2023-02-06T15:25:14.897Z,6.50
2023-02-06T15:27:42.889Z,6.40
2023-02-06T15:30:20.229Z,6.20
2023-02-06T15:32:51.251Z,6.10
2023-02-06T15:35:22.882Z,6.10
2023-02-06T15:37:51.843Z,6.00
2023-02-06T15:40:24.977Z,5.90
2023-02-06T15:42:53.447Z,5.90
2023-02-06T15:45:24.787Z,5.90
2023-02-06T15:47:54.442Z,5.80
2023-02-06T15:50:27.618Z,5.70
2023-02-06T15:52:56.607Z,5.60
2023-02-06T15:55:26.798Z,5.60
2023-02-06T15:57:55.873Z,5.50
2023-02-06T16:00:27.441Z,5.50
2023-02-06T16:03:02.640Z,5.40
2023-02-06T16:05:36.260Z,5.30
2023-02-06T16:08:06.359Z,5.20
2023-02-06T16:10:37.407Z,5.20
2023-02-06T16:13:11.859Z,5.10
2023-02-06T16:15:41.794Z,5.00
2023-02-06T16:18:27.265Z,5.00
2023-02-06T16:21:13.088Z,5.00
2023-02-06T16:23:49.034Z,4.80
2023-02-06T16:26:18.731Z,4.70
2023-02-06T16:28:56.964Z,4.60
2023-02-06T16:31:25.795Z,4.60
2023-02-06T16:33:55.264Z,4.50
2023-02-06T16:36:25.163Z,4.50
2023-02-06T16:39:03.656Z,4.40
2023-02-06T16:41:35.080Z,4.30
2023-02-06T16:44:04.362Z,4.30
2023-02-06T16:46:32.452Z,4.20
2023-02-06T16:49:01.056Z,4.10
2023-02-06T16:51:33.040Z,4.10
2023-02-06T16:54:00.990Z,4.00
2023-02-06T16:56:28.941Z,4.00
2023-02-06T16:58:56.745Z,4.00
2023-02-06T17:01:28.342Z,4.00
2023-02-06T17:03:57.025Z,3.90
2023-02-06T17:06:28.280Z,3.90
2023-02-06T17:09:01.910Z,3.90
2023-02-06T17:11:29.936Z,3.80
2023-02-06T17:13:57.893Z,3.80
2023-02-06T17:16:26.978Z,3.80
2023-02-06T17:18:55.662Z,3.80
2023-02-06T17:21:27.303Z,3.80
2023-02-06T17:23:55.170Z,3.70
2023-02-06T17:26:24.941Z,3.70
2023-02-06T17:28:53.180Z,3.70
2023-02-06T17:31:21.761Z,3.70
2023-02-06T17:33:49.835Z,3.70
2023-02-06T17:36:21.823Z,3.60
2023-02-06T17:38:49.979Z,3.70
2023-02-06T17:41:17.819Z,3.70
2023-02-06T17:43:47.125Z,3.70
2023-02-06T17:46:14.981Z,3.80
2023-02-06T17:48:44.508Z,3.90
2023-02-06T17:51:12.672Z,4.00
2023-02-06T17:53:40.578Z,4.00
2023-02-06T17:56:12.766Z,4.10
2023-02-06T17:58:41.107Z,4.10
2023-02-06T18:01:13.414Z,4.10
2023-02-06T18:03:41.604Z,4.10
2023-02-06T18:06:10.562Z,4.10
2023-02-06T18:08:39.106Z,4.00
2023-02-06T18:11:11.448Z,4.00
2023-02-06T18:13:40.138Z,3.90
2023-02-06T18:16:09.168Z,3.90
2023-02-06T18:18:38.381Z,3.80
2023-02-06T18:21:06.637Z,3.80
2023-02-06T18:23:34.804Z,3.80
2023-02-06T18:26:03.470Z,3.70
2023-02-06T18:28:31.381Z,3.80
2023-02-06T18:31:01.696Z,3.80
2023-02-06T18:33:30.121Z,3.70
2023-02-06T18:35:59.435Z,3.70
2023-02-06T18:38:27.485Z,3.70
2023-02-06T18:40:55.299Z,3.60
2023-02-06T18:43:22.200Z,3.60
2023-02-06T18:45:50.051Z,3.60
2023-02-06T18:48:17.878Z,3.50
2023-02-06T18:50:45.742Z,3.50
2023-02-06T18:53:15.904Z,3.50
2023-02-06T18:55:43.778Z,3.50
2023-02-06T18:58:11.718Z,3.50
2023-02-06T19:00:42.257Z,3.40
2023-02-06T19:03:10.378Z,3.30
2023-02-06T19:05:38.245Z,3.30
2023-02-06T19:08:06.205Z,3.20
2023-02-06T19:10:35.799Z,3.20
2023-02-06T19:13:03.824Z,3.10
2023-02-06T19:15:34.250Z,3.10
2023-02-06T19:18:02.969Z,3.10
2023-02-06T19:20:30.890Z,3.00
2023-02-06T19:22:58.756Z,2.90
2023-02-06T19:25:26.686Z,2.80
2023-02-06T19:27:56.740Z,2.70
2023-02-06T19:30:24.669Z,2.60
2023-02-06T19:32:52.519Z,2.50
2023-02-06T19:35:21.870Z,2.50
2023-02-06T19:37:49.718Z,2.40
2023-02-06T19:40:18.120Z,2.30
2023-02-06T19:42:46.015Z,2.30
2023-02-06T19:45:15.197Z,2.20
2023-02-06T19:47:43.450Z,2.20
2023-02-06T19:50:14.075Z,2.20
2023-02-06T19:52:42.118Z,2.20
2023-02-06T19:55:10.335Z,2.20
2023-02-06T19:57:39.686Z,2.20
2023-02-06T20:00:08.874Z,2.20
2023-02-06T20:02:39.069Z,2.10
2023-02-06T20:05:07.705Z,2.10
2023-02-06T20:07:35.633Z,2.10
2023-02-06T20:10:05.198Z,2.10
2023-02-06T20:12:33.276Z,2.10
2023-02-06T20:15:01.569Z,2.00
2023-02-06T20:17:29.478Z,2.00
2023-02-06T20:20:01.323Z,1.90
2023-02-06T20:22:29.376Z,1.90
2023-02-06T20:24:57.304Z,1.90
2023-02-06T20:27:25.219Z,1.90
2023-02-06T20:29:53.156Z,1.90
2023-02-06T20:32:20.993Z,1.90
2023-02-06T20:34:48.855Z,2.00
2023-02-06T20:37:18.670Z,2.00
2023-02-06T20:39:46.544Z,2.00
2023-02-06T20:42:15.316Z,2.00
2023-02-06T20:44:43.211Z,2.00
2023-02-06T20:47:11.109Z,2.10
2023-02-06T20:49:39.179Z,2.00
2023-02-06T20:52:07.614Z,2.00
2023-02-06T20:54:36.834Z,1.90
2023-02-06T20:57:05.100Z,1.90
2023-02-06T20:59:32.966Z,1.80
2023-02-06T21:02:00.855Z,1.80
2023-02-06T21:04:32.121Z,1.70
2023-02-06T21:07:00.449Z,1.70
2023-02-06T21:09:28.399Z,1.70
2023-02-06T21:11:57.628Z,1.70
2023-02-06T21:14:25.576Z,1.70
2023-02-06T21:16:53.447Z,1.70
2023-02-06T21:19:22.327Z,1.60
2023-02-06T21:21:50.574Z,1.60
2023-02-06T21:24:19.016Z,1.50
2023-02-06T21:26:46.950Z,1.50
2023-02-06T21:29:16.822Z,1.40
2023-02-06T21:31:45.986Z,1.40
2023-02-06T21:34:17.743Z,1.40
2023-02-06T21:36:46.384Z,1.40
2023-02-06T21:39:17.316Z,1.40
2023-02-06T21:41:45.556Z,1.40
2023-02-06T21:44:13.931Z,1.40
2023-02-06T21:46:43.098Z,1.40
2023-02-06T21:49:11.711Z,1.40
2023-02-06T21:51:39.843Z,1.40
2023-02-06T21:54:07.944Z,1.40
2023-02-06T21:56:37.960Z,1.40
2023-02-06T21:59:06.627Z,1.40
2023-02-06T22:01:35.031Z,1.40
2023-02-06T22:04:05.106Z,1.40
2023-02-06T22:06:36.752Z,1.40
2023-02-06T22:09:07.604Z,1.40
2023-02-06T22:11:37.369Z,1.40
2023-02-06T22:14:07.094Z,1.50
2023-02-06T22:16:35.836Z,1.40
2023-02-06T22:19:05.480Z,1.50
2023-02-06T22:21:34.620Z,1.50
2023-02-06T22:24:06.034Z,1.50
2023-02-06T22:26:36.838Z,1.50
2023-02-06T22:29:05.782Z,1.50
2023-02-06T22:31:35.513Z,1.50
2023-02-06T22:34:05.059Z,1.50
2023-02-06T22:36:34.122Z,1.50
2023-02-06T22:39:06.330Z,1.40
2023-02-06T22:41:35.282Z,1.40
2023-02-06T22:44:03.298Z,1.30
2023-02-06T22:46:33.031Z,1.30
2023-02-06T22:49:01.230Z,1.30
2023-02-06T22:51:30.527Z,1.20
2023-02-06T22:53:58.310Z,1.10
2023-02-06T22:56:36.149Z,1.00
2023-02-06T22:59:07.107Z,1.00
2023-02-06T23:01:37.405Z,0.90
2023-02-06T23:04:07.374Z,0.90
2023-02-06T23:06:37.144Z,0.90
2023-02-06T23:09:07.237Z,0.90
2023-02-06T23:11:36.502Z,0.90
2023-02-06T23:14:05.955Z,0.90
2023-02-06T23:16:35.701Z,0.90
2023-02-06T23:19:05.222Z,0.90
2023-02-06T23:21:34.550Z,0.90
2023-02-06T23:24:04.227Z,0.90
2023-02-06T23:26:32.840Z,0.90
2023-02-06T23:29:02.785Z,0.80
2023-02-06T23:31:30.779Z,0.80
2023-02-06T23:33:58.682Z,0.80
2023-02-06T23:36:27.973Z,0.80
2023-02-06T23:38:56.487Z,0.80
2023-02-06T23:41:28.120Z,0.80
2023-02-06T23:43:59.004Z,0.80
2023-02-06T23:46:28.226Z,0.80
2023-02-06T23:48:56.514Z,0.80
2023-02-06T23:51:25.216Z,0.80
2023-02-06T23:53:53.282Z,0.80
2023-02-06T23:56:24.510Z,0.80
2023-02-06T23:58:54.617Z,0.80
